TimeMDT,TemperatureF,Dew PointF,Humidity,Sea Level PressureIn,VisibilityMPH,Wind Direction,Wind SpeedMPH,Gust SpeedMPH,PrecipitationIn,Events,Conditions,WindDirDegrees,DateUTC
12:51 AM,24.1,19.0,81,29.52,-9999.0,Calm,Calm,-,N/A,,Unknown,0,2014-03-27 06:51:00
1:51 AM,27.0,19.0,72,29.49,-9999.0,SSE,5.8,-,N/A,,Unknown,150,2014-03-27 07:51:00
2:51 AM,26.1,25.0,96,29.51,-9999.0,SE,5.8,-,0.02,,Unknown,130,2014-03-27 08:51:00
3:51 AM,27.0,25.0,92,29.52,-9999.0,SE,4.6,-,0.03,,Unknown,130,2014-03-27 09:51:00
4:51 AM,28.0,26.1,92,29.51,-9999.0,SE,4.6,-,0.02,,Unknown,130,2014-03-27 10:51:00
5:51 AM,26.1,25.0,96,29.55,-9999.0,NW,6.9,-,0.02,,Unknown,320,2014-03-27 11:51:00
6:51 AM,26.1,25.0,96,29.56,-9999.0,SSE,4.6,-,0.05,,Unknown,150,2014-03-27 12:51:00
7:51 AM,27.0,24.1,89,29.58,-9999.0,SE,5.8,-,0.01,,Unknown,130,2014-03-27 13:51:00
8:51 AM,27.0,25.0,92,29.62,-9999.0,Calm,Calm,-,0.02,,Unknown,0,2014-03-27 14:51:00
9:51 AM,27.0,24.1,89,29.64,-9999.0,NE,5.8,-,0.04,,Unknown,40,2014-03-27 15:51:00
10:51 AM,28.9,19.9,69,29.64,-9999.0,Calm,Calm,-,N/A,,Unknown,0,2014-03-27 16:51:00
11:51 AM,28.9,19.0,67,29.68,-9999.0,NW,5.8,-,N/A,,Unknown,320,2014-03-27 17:51:00
12:51 PM,28.9,21.9,75,29.69,-9999.0,South,3.5,-,N/A,,Unknown,180,2014-03-27 18:51:00
1:51 PM,30.0,23.0,75,29.68,-9999.0,SE,3.5,-,N/A,,Unknown,140,2014-03-27 19:51:00
2:51 PM,33.1,18.0,54,29.68,-9999.0,Calm,Calm,-,N/A,,Unknown,0,2014-03-27 20:51:00
3:51 PM,27.0,24.1,89,29.74,-9999.0,Calm,Calm,-,0.01,,Unknown,0,2014-03-27 21:51:00
4:51 PM,30.0,24.1,79,29.72,-9999.0,SE,4.6,-,0.05,,Unknown,140,2014-03-27 22:51:00
5:51 PM,30.9,21.0,67,29.73,-9999.0,ESE,4.6,-,N/A,,Unknown,110,2014-03-27 23:51:00
6:51 PM,30.0,19.9,66,29.75,-9999.0,SSE,8.1,-,N/A,,Unknown,150,2014-03-28 00:51:00
7:51 PM,28.9,21.9,75,29.78,-9999.0,ESE,5.8,-,N/A,,Unknown,110,2014-03-28 01:51:00
8:51 PM,27.0,21.0,78,29.82,-9999.0,South,5.8,-,N/A,,Unknown,180,2014-03-28 02:51:00
9:51 PM,26.1,21.0,81,29.85,-9999.0,Calm,Calm,-,N/A,,Unknown,0,2014-03-28 03:51:00
10:51 PM,26.1,21.0,81,29.85,-9999.0,SSE,5.8,-,N/A,,Unknown,160,2014-03-28 04:51:00
11:51 PM,24.1,21.0,88,29.89,-9999.0,ESE,3.5,-,N/A,,Unknown,120,2014-03-28 05:51:00